Time;durP1;ratioP1;P1;durP2;ratioP2;P2;SDS_P1;SDS_P2;PMS_P1;PMS_P2;Temp;Humidity;BMP_temperature;BMP_pressure;BME280_temperature;BME280_humidity;BME280_pressure;Samples;Min_cycle;Max_cycle;Signal;HPM_P1;HPM_P2
2022/08/09 00:01:23;;;;;;;5.72;3.47;;;;;;;16.09;84.67;102613.16;5068928;28;20020;-68
2022/08/09 00:03:49;;;;;;;5.88;4.18;;;;;;;16.07;84.62;102609.81;5069083;28;20369;-67
2022/08/09 00:06:14;;;;;;;4.97;3.53;;;;;;;16.05;84.50;102606.47;5068896;28;20094;-68
2022/08/09 00:08:40;;;;;;;5.93;3.50;;;;;;;16.02;84.67;102603.34;5068951;28;20032;-67
2022/08/09 00:11:05;;;;;;;8.20;3.25;;;;;;;16.03;85.02;102605.84;5068784;28;20531;-67
2022/08/09 00:13:31;;;;;;;7.18;3.53;;;;;;;16.04;84.74;102604.00;5068637;28;20037;-67
2022/08/09 00:15:56;;;;;;;8.30;4.68;;;;;;;16.01;84.99;102605.22;5068167;28;20027;-68
2022/08/09 00:18:21;;;;;;;7.70;4.25;;;;;;;15.98;85.37;102606.44;5068295;28;20124;-68
2022/08/09 00:20:47;;;;;;;7.18;3.50;;;;;;;15.95;85.33;102606.78;5068271;28;20966;-67
2022/08/09 00:23:12;;;;;;;8.93;4.53;;;;;;;15.91;85.46;102600.13;5068422;28;20125;-68
2022/08/09 00:25:37;;;;;;;12.00;4.88;;;;;;;15.88;85.61;102600.50;5068685;28;20043;-67
2022/08/09 00:28:05;;;;;;;7.95;3.83;;;;;;;15.87;85.81;102601.50;5068175;28;20383;-68
2022/08/09 00:30:31;;;;;;;9.68;4.72;;;;;;;15.86;85.68;102602.56;5069999;28;20032;-68
2022/08/09 00:32:56;;;;;;;5.07;3.70;;;;;;;15.82;85.80;102597.72;5072069;28;20601;-68
2022/08/09 00:35:22;;;;;;;5.93;3.75;;;;;;;15.79;85.84;102593.56;5072212;28;20091;-68
2022/08/09 00:37:48;;;;;;;7.25;3.75;;;;;;;15.84;86.04;102601.91;5072371;28;20107;-68
2022/08/09 00:40:13;;;;;;;7.55;4.00;;;;;;;15.72;86.27;102588.09;5072276;28;20127;-68
2022/08/09 00:42:38;;;;;;;5.97;3.38;;;;;;;15.76;85.91;102592.06;5072156;28;20032;-67
2022/08/09 00:45:04;;;;;;;6.70;3.78;;;;;;;15.78;86.46;102602.66;5072195;28;20051;-68
2022/08/09 00:47:31;;;;;;;8.60;3.38;;;;;;;15.74;86.32;102598.66;5072277;28;20032;-68
2022/08/09 00:49:56;;;;;;;7.70;4.05;;;;;;;15.72;86.50;102606.13;5072141;28;20036;-67
2022/08/09 00:52:23;;;;;;;4.20;3.17;;;;;;;15.66;86.56;102594.19;5072196;28;20399;-67
2022/08/09 00:54:52;;;;;;;5.25;3.70;;;;;;;15.69;86.74;102612.69;5071803;28;20033;-68
2022/08/09 00:57:17;;;;;;;6.43;3.40;;;;;;;15.67;86.54;102609.31;5071558;28;20032;-68
2022/08/09 00:59:44;;;;;;;8.02;3.72;;;;;;;15.67;86.78;102603.13;5071817;28;20063;-68
2022/08/09 01:02:10;;;;;;;7.00;3.80;;;;;;;15.59;86.96;102601.34;5071592;28;20039;-68
2022/08/09 01:04:54;;;;;;;5.93;3.55;;;;;;;15.62;87.11;102617.13;5071906;28;20467;-67
2022/08/09 01:07:30;;;;;;;8.25;4.05;;;;;;;15.56;87.29;102599.03;5071836;28;20081;-69
2022/08/09 01:10:27;;;;;;;11.32;5.03;;;;;;;15.55;86.68;102608.94;5071815;28;20016;-66
2022/08/09 01:13:25;;;;;;;7.88;4.47;;;;;;;15.59;86.58;102611.25;5071837;28;20032;-66
2022/08/09 01:15:55;;;;;;;5.90;3.00;;;;;;;15.54;86.99;102603.78;5065627;28;20124;-66
2022/08/09 01:18:27;;;;;;;6.47;4.00;;;;;;;15.60;87.00;102615.63;5071198;28;20020;-67
2022/08/09 01:21:11;;;;;;;6.40;3.47;;;;;;;15.57;86.85;102616.84;5070949;28;20075;-67
2022/08/09 01:24:07;;;;;;;7.25;3.85;;;;;;;15.51;87.18;102604.97;5071109;28;20056;-68
2022/08/09 01:26:41;;;;;;;5.95;3.72;;;;;;;15.49;87.07;102607.00;5071488;28;20494;-67
2022/08/09 01:29:11;;;;;;;6.10;4.00;;;;;;;15.43;87.26;102605.09;5071464;28;20537;-67
2022/08/09 01:31:39;;;;;;;6.63;3.65;;;;;;;15.43;87.37;102609.59;5071450;28;20020;-67
2022/08/09 01:34:06;;;;;;;7.10;3.47;;;;;;;15.42;87.44;102608.78;5069939;28;20392;-67
2022/08/09 01:36:35;;;;;;;8.60;4.40;;;;;;;15.38;87.60;102594.03;5071073;28;20060;-67
2022/08/09 01:39:01;;;;;;;5.55;2.92;;;;;;;15.37;87.40;102604.97;5071225;28;20044;-67
2022/08/09 01:41:31;;;;;;;6.57;3.90;;;;;;;15.35;87.60;102602.47;5070653;28;20055;-67
2022/08/09 01:44:01;;;;;;;6.75;3.47;;;;;;;15.30;87.60;102596.81;5071118;28;20157;-67
2022/08/09 01:46:37;;;;;;;5.07;3.28;;;;;;;15.27;87.64;102594.50;5071025;28;20104;-67
2022/08/09 01:49:09;;;;;;;10.98;3.35;;;;;;;15.27;87.80;102603.41;5070923;28;20357;-67
2022/08/09 01:51:37;;;;;;;4.93;3.03;;;;;;;15.25;87.70;102596.56;5071052;28;20031;-67
2022/08/09 01:54:05;;;;;;;10.48;4.35;;;;;;;15.22;87.94;102599.59;5069530;28;20400;-67
2022/08/09 01:56:34;;;;;;;8.55;3.72;;;;;;;15.17;87.95;102593.91;5071044;28;20016;-67
2022/08/09 01:59:04;;;;;;;4.93;3.33;;;;;;;15.17;88.21;102601.97;5070700;28;20077;-67
2022/08/09 02:01:32;;;;;;;9.00;3.78;;;;;;;15.15;88.37;102601.34;5070745;28;20129;-67
2022/08/09 02:03:59;;;;;;;5.00;3.72;;;;;;;15.11;88.56;102596.31;5070824;28;20044;-68
2022/08/09 02:09:12;;;;;;;8.20;3.88;;;;;;;15.04;88.63;102606.16;5070825;28;20404;-68
2022/08/09 02:11:38;;;;;;;7.78;3.90;;;;;;;15.05;88.99;102613.19;5070419;28;20112;-68
2022/08/09 02:14:06;;;;;;;5.95;3.58;;;;;;;15.03;89.21;102609.84;5070441;28;20020;-68
2022/08/09 02:16:36;;;;;;;7.88;4.10;;;;;;;15.03;88.94;102609.03;5070496;28;20021;-68
2022/08/09 02:19:02;;;;;;;6.78;3.83;;;;;;;15.00;89.18;102617.44;5069806;28;20035;-68
2022/08/09 02:21:31;;;;;;;8.65;3.83;;;;;;;15.00;89.21;102618.28;5070238;28;20120;-68
2022/08/09 02:23:58;;;;;;;7.68;3.60;;;;;;;14.94;89.53;102612.81;5069679;28;20028;-68
2022/08/09 02:26:27;;;;;;;6.68;3.38;;;;;;;14.94;89.64;102610.97;5070342;28;20036;-68
2022/08/09 02:28:57;;;;;;;7.60;3.47;;;;;;;14.88;90.09;102599.09;5070066;28;20419;-68
2022/08/09 02:31:29;;;;;;;6.25;3.55;;;;;;;14.91;90.27;102605.97;5070247;28;20029;-68
2022/08/09 02:33:59;;;;;;;7.00;3.47;;;;;;;14.90;90.43;102613.16;5068792;28;20397;-68
2022/08/09 02:36:32;;;;;;;7.95;3.95;;;;;;;14.84;90.59;102605.00;5070123;28;20079;-68
2022/08/09 02:39:04;;;;;;;8.15;4.07;;;;;;;14.86;90.94;102608.34;5069594;28;20024;-68
2022/08/09 02:41:44;;;;;;;5.82;3.95;;;;;;;14.85;91.02;102612.03;5068560;28;20554;-68
2022/08/09 02:44:19;;;;;;;9.55;4.35;;;;;;;14.84;91.36;102611.22;5070060;28;20025;-68
2022/08/09 02:46:46;;;;;;;8.57;4.35;;;;;;;14.83;91.15;102593.44;5070057;28;20028;-68
2022/08/09 02:49:14;;;;;;;9.63;5.75;;;;;;;14.83;91.05;102600.66;5069956;28;20085;-68
2022/08/09 02:51:43;;;;;;;6.72;4.18;;;;;;;14.82;91.46;102599.81;5069927;28;20024;-67
2022/08/09 02:54:12;;;;;;;12.70;5.57;;;;;;;14.78;91.60;102593.16;5069109;28;20024;-68
2022/08/09 02:56:42;;;;;;;10.18;5.55;;;;;;;14.77;91.60;102598.69;5069726;28;20059;-68
2022/08/09 02:59:09;;;;;;;13.55;7.13;;;;;;;14.71;91.84;102594.03;5069600;28;20031;-67
2022/08/09 03:01:36;;;;;;;14.15;7.60;;;;;;;14.73;91.98;102597.41;5069571;28;20028;-68
2022/08/09 03:04:04;;;;;;;13.35;7.32;;;;;;;14.70;91.86;102598.59;5069566;28;20411;-68
2022/08/09 03:06:31;;;;;;;11.82;5.53;;;;;;;14.70;91.83;102598.59;5069528;28;20028;-68
2022/08/09 03:08:58;;;;;;;14.65;5.88;;;;;;;14.66;92.26;102602.63;5069752;28;20066;-68
2022/08/09 03:11:25;;;;;;;10.23;5.10;;;;;;;14.63;92.36;102598.47;5069503;28;20119;-68
2022/08/09 03:13:51;;;;;;;10.65;5.28;;;;;;;14.61;92.47;102595.13;5069458;28;20039;-68
2022/08/09 03:16:20;;;;;;;10.23;5.82;;;;;;;14.60;92.57;102595.31;5069069;28;20040;-68
2022/08/09 03:18:46;;;;;;;13.90;5.10;;;;;;;14.59;92.98;102588.25;5069440;28;20029;-68
2022/08/09 03:21:14;;;;;;;10.90;5.25;;;;;;;14.59;93.05;102590.94;5068798;28;20723;-67
2022/08/09 03:23:44;;;;;;;7.28;4.70;;;;;;;14.53;93.06;102586.31;5069116;28;20048;-68
2022/08/09 03:26:09;;;;;;;9.70;5.47;;;;;;;14.44;93.13;102578.28;5069019;28;20036;-68
2022/08/09 03:28:36;;;;;;;10.05;5.13;;;;;;;14.52;93.09;102590.81;5069315;28;20123;-68
2022/08/09 03:31:03;;;;;;;8.75;4.93;;;;;;;14.51;93.38;102591.81;5069157;28;20452;-68
2022/08/09 03:33:30;;;;;;;10.57;5.03;;;;;;;14.49;93.56;102596.53;5069050;28;20147;-68
2022/08/09 03:35:55;;;;;;;11.13;5.75;;;;;;;14.44;93.62;102582.81;5069326;28;20045;-68
2022/08/09 03:38:21;;;;;;;9.90;5.70;;;;;;;14.46;93.62;102588.81;5069332;28;20105;-68
2022/08/09 03:40:46;;;;;;;8.32;5.47;;;;;;;14.46;93.74;102599.56;5068688;28;20039;-68
2022/08/09 03:43:11;;;;;;;10.50;5.18;;;;;;;14.44;93.68;102604.31;5069307;28;20024;-68
2022/08/09 03:45:37;;;;;;;9.45;5.07;;;;;;;14.41;93.79;102600.13;5069185;28;20483;-68
2022/08/09 03:48:02;;;;;;;16.65;6.57;;;;;;;14.41;94.00;102610.03;5069225;28;20044;-68
2022/08/09 03:50:30;;;;;;;9.25;4.43;;;;;;;14.37;93.63;102606.03;5069159;28;20024;-68
2022/08/09 03:52:58;;;;;;;8.80;4.38;;;;;;;14.32;94.14;102603.88;5068919;28;20024;-68
2022/08/09 03:55:24;;;;;;;8.15;5.20;;;;;;;14.29;94.36;102604.22;5068895;28;20064;-68
2022/08/09 03:57:49;;;;;;;12.38;5.95;;;;;;;14.25;94.72;102598.41;5069085;28;20514;-68
2022/08/09 04:00:16;;;;;;;11.15;4.72;;;;;;;14.27;94.69;102605.41;5068812;28;20123;-67
2022/08/09 04:02:42;;;;;;;10.30;5.53;;;;;;;14.25;94.75;102609.13;5068933;28;20115;-68
2022/08/09 04:05:09;;;;;;;7.90;4.55;;;;;;;14.23;95.09;102603.09;5071478;28;20078;-68
2022/08/09 04:07:35;;;;;;;11.18;4.88;;;;;;;14.21;95.50;102604.28;5072901;28;20032;-68
2022/08/09 04:10:01;;;;;;;9.23;3.78;;;;;;;14.21;95.43;102602.44;5072978;28;20020;-68
2022/08/09 04:12:32;;;;;;;10.80;4.50;;;;;;;14.20;95.60;102600.78;5072810;28;20036;-68
2022/08/09 04:14:58;;;;;;;9.48;4.63;;;;;;;14.19;95.29;102600.94;5072574;28;20028;-68
2022/08/09 04:17:23;;;;;;;21.88;6.10;;;;;;;14.16;95.49;102601.28;5072643;28;20028;-68
2022/08/09 04:19:48;;;;;;;10.52;4.57;;;;;;;14.15;95.58;102592.41;5072522;28;20468;-68
2022/08/09 04:22:14;;;;;;;8.75;4.70;;;;;;;14.09;96.19;102593.09;5072222;28;20150;-68
2022/08/09 04:24:39;;;;;;;11.25;4.85;;;;;;;14.12;95.93;102605.34;5071170;28;20047;-67
2022/08/09 04:27:04;;;;;;;11.40;4.78;;;;;;;14.11;96.19;102606.34;5072148;28;20055;-67
2022/08/09 04:29:30;;;;;;;10.07;4.90;;;;;;;14.07;96.28;102605.03;5072493;28;20028;-68
2022/08/09 04:31:55;;;;;;;11.73;5.43;;;;;;;14.08;96.15;102606.72;5072383;28;20029;-68
2022/08/09 04:34:21;;;;;;;12.40;4.95;;;;;;;14.11;96.49;102615.25;5072377;28;20051;-68
2022/08/09 04:36:46;;;;;;;12.32;5.70;;;;;;;14.09;96.61;102616.44;5072377;28;20024;-68
2022/08/09 04:39:12;;;;;;;11.43;4.53;;;;;;;14.06;96.63;102622.16;5072380;28;20123;-68
2022/08/09 04:41:38;;;;;;;8.82;5.32;;;;;;;14.07;96.88;102624.66;5070615;28;20219;-68
2022/08/09 04:44:04;;;;;;;12.43;5.88;;;;;;;14.08;97.19;102622.81;5072013;28;20021;-68
2022/08/09 04:46:29;;;;;;;11.38;5.28;;;;;;;14.12;97.44;102629.47;5072136;28;20024;-68
2022/08/09 04:48:55;;;;;;;12.15;5.82;;;;;;;14.21;97.14;102623.06;5072199;28;20119;-68
2022/08/09 04:51:20;;;;;;;9.82;5.88;;;;;;;14.28;96.61;102631.22;5072170;28;20029;-68
2022/08/09 04:53:45;;;;;;;11.90;5.10;;;;;;;14.28;97.01;102624.03;5071896;28;20426;-69
2022/08/09 04:56:11;;;;;;;11.35;5.53;;;;;;;14.23;96.85;102613.81;5071966;28;20450;-68
2022/08/09 04:58:36;;;;;;;12.40;5.88;;;;;;;14.54;97.10;102628.22;5072109;28;20060;-68
2022/08/09 05:01:01;;;;;;;10.43;5.35;;;;;;;14.86;96.04;102629.84;5071915;28;20063;-69
2022/08/09 05:03:27;;;;;;;11.63;6.15;;;;;;;15.12;94.67;102637.50;5071943;28;20506;-68
2022/08/09 05:05:53;;;;;;;12.85;6.07;;;;;;;15.17;93.60;102639.63;5071935;28;20028;-68
2022/08/09 05:08:18;;;;;;;10.55;5.43;;;;;;;15.10;93.84;102644.91;5071746;28;20083;-68
2022/08/09 05:10:44;;;;;;;13.05;5.57;;;;;;;15.03;94.12;102635.91;5071869;28;20025;-69
2022/08/09 05:13:10;;;;;;;8.50;4.95;;;;;;;15.12;94.17;102645.56;5071769;28;20069;-68
2022/08/09 05:15:35;;;;;;;10.80;5.43;;;;;;;15.23;93.61;102644.28;5070965;28;20028;-69
2022/08/09 05:18:01;;;;;;;10.55;5.00;;;;;;;15.31;92.89;102639.66;5071579;28;20480;-69
2022/08/09 05:20:27;;;;;;;12.50;5.13;;;;;;;15.29;92.77;102652.44;5071593;28;20028;-69
2022/08/09 05:22:52;;;;;;;8.77;5.00;;;;;;;15.20;93.64;102642.78;5071384;28;20020;-68
2022/08/09 05:25:22;;;;;;;14.88;6.38;;;;;;;15.27;95.47;102642.88;5071123;28;20499;-68
2022/08/09 05:27:49;;;;;;;10.32;5.32;;;;;;;15.25;94.67;102644.94;5071318;28;20032;-66
2022/08/09 05:30:16;;;;;;;12.90;5.38;;;;;;;15.24;95.05;102641.38;5071100;28;20028;-68
2022/08/09 05:32:42;;;;;;;12.13;6.07;;;;;;;15.26;94.89;102639.34;5071438;28;20171;-67
2022/08/09 05:35:08;;;;;;;10.60;5.18;;;;;;;15.32;94.31;102646.69;5069919;28;20049;-67
2022/08/09 05:37:34;;;;;;;13.45;6.43;;;;;;;15.33;94.38;102648.38;5071362;28;20032;-69
2022/08/09 05:39:59;;;;;;;9.80;5.03;;;;;;;15.37;94.73;102654.19;5071105;28;20069;-69
2022/08/09 05:42:24;;;;;;;11.73;5.68;;;;;;;15.44;94.31;102659.69;5071058;28;20508;-67
2022/08/09 05:44:51;;;;;;;17.02;6.97;;;;;;;15.49;94.29;102649.22;5069527;28;20043;-67
2022/08/09 05:47:17;;;;;;;15.30;6.35;;;;;;;15.56;94.70;102652.81;5071031;28;20032;-68
2022/08/09 05:49:42;;;;;;;12.38;5.95;;;;;;;15.60;94.34;102654.13;5071146;28;20039;-68
2022/08/09 05:52:08;;;;;;;12.77;6.05;;;;;;;15.65;93.83;102659.78;5071073;28;20388;-68
2022/08/09 05:54:34;;;;;;;13.63;6.35;;;;;;;15.69;94.33;102663.81;5070864;28;20024;-68
2022/08/09 05:57:00;;;;;;;13.88;6.47;;;;;;;15.73;93.63;102657.03;5070785;28;20505;-68
2022/08/09 05:59:25;;;;;;;11.98;5.35;;;;;;;15.72;93.90;102659.91;5070645;28;20048;-68
2022/08/09 06:01:50;;;;;;;15.40;5.88;;;;;;;15.78;93.86;102668.06;5070725;28;20190;-68
2022/08/09 06:04:16;;;;;;;13.57;6.78;;;;;;;15.83;93.61;102664.81;5070697;28;20035;-68
2022/08/09 06:06:41;;;;;;;16.00;7.25;;;;;;;15.93;94.62;102672.59;5070743;28;20547;-68
2022/08/09 06:09:06;;;;;;;11.48;5.97;;;;;;;15.98;93.31;102672.84;5071362;28;20048;-68
2022/08/09 06:11:32;;;;;;;15.20;7.03;;;;;;;16.02;93.45;102670.63;5070287;28;20064;-68
2022/08/09 06:13:58;;;;;;;13.80;6.60;;;;;;;16.08;93.36;102669.88;5070612;28;20082;-68
2022/08/09 06:16:23;;;;;;;13.80;6.20;;;;;;;16.11;92.32;102674.88;5070581;28;20028;-67
2022/08/09 06:18:49;;;;;;;13.10;7.05;;;;;;;16.15;93.56;102673.50;5070425;28;20111;-68
2022/08/09 06:21:14;;;;;;;12.48;6.05;;;;;;;16.16;92.06;102680.53;5070362;28;20182;-68
2022/08/09 06:23:39;;;;;;;14.63;6.90;;;;;;;16.20;92.35;102673.75;5069084;28;20055;-67
2022/08/09 06:26:06;;;;;;;13.63;6.10;;;;;;;16.24;92.70;102683.09;5069934;28;20070;-67
2022/08/09 06:28:31;;;;;;;12.90;6.35;;;;;;;16.33;91.45;102686.53;5070086;28;20137;-67
2022/08/09 06:30:56;;;;;;;12.95;6.85;;;;;;;16.40;93.12;102682.03;5069871;28;20127;-67
2022/08/09 06:33:22;;;;;;;13.32;6.35;;;;;;;16.48;91.67;102689.16;5070166;28;20063;-69
2022/08/09 06:35:47;;;;;;;13.77;6.70;;;;;;;16.50;90.90;102689.81;5070225;28;20039;-68
2022/08/09 06:38:12;;;;;;;13.30;6.55;;;;;;;16.53;90.95;102687.59;5070099;28;20031;-67
2022/08/09 06:40:38;;;;;;;16.60;6.88;;;;;;;16.54;90.72;102680.34;5070066;28;20029;-67
2022/08/09 06:43:03;;;;;;;16.00;6.65;;;;;;;16.57;90.38;102680.78;5068668;28;20024;-67
2022/08/09 06:45:29;;;;;;;9.88;5.47;;;;;;;16.70;92.59;102684.66;5069704;28;20431;-73
2022/08/09 06:47:54;;;;;;;11.77;6.10;;;;;;;16.74;90.41;102681.38;5069690;28;20047;-72
2022/08/09 06:50:19;;;;;;;13.07;5.95;;;;;;;16.85;89.29;102685.44;5069761;28;20361;-71
2022/08/09 06:52:45;;;;;;;12.90;7.35;;;;;;;16.89;89.58;102691.28;5069802;28;20088;-72
2022/08/09 06:55:12;;;;;;;12.20;5.78;;;;;;;16.93;90.37;102682.63;5069762;28;20033;-71
2022/08/09 06:57:37;;;;;;;13.02;6.22;;;;;;;17.05;90.21;102686.44;5068375;28;20123;-71
2022/08/09 07:00:04;;;;;;;14.07;6.60;;;;;;;17.14;88.09;102686.31;5069561;28;20613;-72
2022/08/09 07:02:30;;;;;;;12.65;7.32;;;;;;;17.21;87.82;102684.47;5068184;28;20047;-72
2022/08/09 07:04:56;;;;;;;16.48;6.45;;;;;;;17.27;87.07;102698.03;5069252;28;20028;-71
2022/08/09 07:07:21;;;;;;;11.45;6.30;;;;;;;17.27;86.29;102692.63;5069485;28;20043;-72
2022/08/09 07:09:46;;;;;;;9.15;5.40;;;;;;;17.38;89.01;102702.06;5069450;28;20040;-73
2022/08/09 07:12:12;;;;;;;10.65;6.03;;;;;;;17.45;87.21;102702.13;5064087;28;20032;-74
2022/08/09 07:14:38;;;;;;;12.38;5.97;;;;;;;17.53;86.57;102704.66;5065078;28;20024;-75
2022/08/09 07:17:03;;;;;;;11.07;5.22;;;;;;;17.61;85.83;102695.56;5065318;28;20024;-73
2022/08/09 07:19:29;;;;;;;11.65;5.47;;;;;;;17.72;87.78;102697.69;5065200;28;20082;-74
2022/08/09 07:21:54;;;;;;;12.07;5.70;;;;;;;17.78;84.86;102706.88;5064998;28;20033;-73
2022/08/09 07:24:20;;;;;;;9.20;4.95;;;;;;;17.82;83.85;102698.22;5065344;28;20490;-73
2022/08/09 07:26:45;;;;;;;13.35;5.75;;;;;;;17.92;83.33;102695.13;5064632;28;20127;-73
2022/08/09 07:29:11;;;;;;;9.52;5.40;;;;;;;17.99;84.90;102696.00;5064624;28;20111;-72
2022/08/09 07:31:36;;;;;;;16.63;5.88;;;;;;;18.06;84.56;102704.97;5064740;28;20058;-73
2022/08/09 07:34:01;;;;;;;12.55;5.93;;;;;;;18.14;84.32;102699.38;5063277;28;20053;-72
2022/08/09 07:36:29;;;;;;;8.57;4.75;;;;;;;18.24;83.78;102706.28;5064694;28;20742;-73
2022/08/09 07:38:56;;;;;;;13.95;5.93;;;;;;;18.33;82.99;102710.47;5064494;28;20423;-72
2022/08/09 07:41:22;;;;;;;8.23;4.88;;;;;;;18.42;82.35;102697.59;5064784;28;20032;-74
2022/08/09 07:43:47;;;;;;;11.55;4.60;;;;;;;18.46;82.28;102699.69;5064171;28;20412;-74
2022/08/09 07:46:12;;;;;;;10.60;5.82;;;;;;;18.53;81.21;102700.56;5064915;28;20127;-72
2022/08/09 07:48:38;;;;;;;8.73;4.93;;;;;;;18.55;81.00;102701.19;5066195;28;20032;-71
2022/08/09 07:51:03;;;;;;;8.85;5.00;;;;;;;18.55;79.90;102698.47;5069117;28;20025;-71
2022/08/09 07:53:28;;;;;;;12.02;5.47;;;;;;;18.61;79.59;102702.22;5069057;28;20032;-71
2022/08/09 07:55:54;;;;;;;9.57;4.80;;;;;;;18.66;80.17;102707.84;5069096;28;20032;-71
2022/08/09 07:58:19;;;;;;;7.65;4.18;;;;;;;18.80;79.75;102708.72;5069108;28;20044;-71
2022/08/09 08:00:45;;;;;;;9.25;5.10;;;;;;;18.88;79.45;102713.13;5068858;28;20124;-71
2022/08/09 08:03:10;;;;;;;10.70;5.07;;;;;;;18.93;78.74;102710.63;5068738;28;20033;-71
2022/08/09 08:05:36;;;;;;;10.13;4.43;;;;;;;18.97;77.51;102711.88;5067346;28;20654;-71
2022/08/09 08:08:02;;;;;;;8.90;4.68;;;;;;;19.00;77.76;102700.66;5068905;28;20429;-71
2022/08/09 08:10:28;;;;;;;8.85;4.35;;;;;;;19.49;76.40;102713.72;5068930;28;20031;-71
2022/08/09 08:12:54;;;;;;;7.97;3.70;;;;;;;20.52;71.96;102720.25;5068791;28;20067;-71
2022/08/09 08:15:20;;;;;;;6.13;3.05;;;;;;;22.45;65.85;102726.59;5068764;28;20060;-71
2022/08/09 08:17:50;;;;;;;11.85;4.32;;;;;;;24.10;59.59;102711.19;5068860;28;20086;-71
2022/08/09 08:20:15;;;;;;;5.40;4.03;;;;;;;25.51;53.17;102718.53;5068671;28;20392;-71
2022/08/09 08:22:41;;;;;;;6.63;3.85;;;;;;;26.16;50.32;102714.19;5068894;28;20024;-71
2022/08/09 08:25:07;;;;;;;8.57;4.22;;;;;;;26.89;49.54;102717.41;5068708;28;20032;-71
2022/08/09 08:27:33;;;;;;;6.35;3.17;;;;;;;27.49;47.26;102715.38;5068831;28;20033;-71
2022/08/09 08:29:58;;;;;;;6.13;3.47;;;;;;;27.82;46.46;102710.59;5068481;28;20059;-71
2022/08/09 08:32:24;;;;;;;6.18;3.25;;;;;;;28.26;44.91;102690.16;5068238;28;20120;-71
2022/08/09 08:34:49;;;;;;;4.95;3.08;;;;;;;28.79;43.99;102699.88;5067898;28;20143;-71
2022/08/09 08:37:15;;;;;;;6.03;2.78;;;;;;;29.18;42.55;102693.78;5068583;28;20036;-72
2022/08/09 08:39:40;;;;;;;6.15;3.17;;;;;;;29.04;41.54;102703.69;5068487;28;20024;-72
2022/08/09 08:42:06;;;;;;;5.50;2.88;;;;;;;28.44;41.77;102700.66;5068530;28;20034;-71
2022/08/09 08:44:35;;;;;;;7.30;3.72;;;;;;;28.59;43.60;102705.34;5068643;28;20028;-71
2022/08/09 08:47:02;;;;;;;6.72;3.08;;;;;;;28.98;41.69;102713.84;5068621;28;20654;-72
2022/08/09 08:49:29;;;;;;;5.20;2.47;;;;;;;29.07;41.49;102713.31;5068247;28;20029;-72
2022/08/09 08:51:55;;;;;;;5.72;2.40;;;;;;;28.88;41.68;102708.38;5070310;28;20046;-71
2022/08/09 08:54:20;;;;;;;9.18;3.70;;;;;;;29.19;41.01;102709.19;5072057;28;20461;-71
2022/08/09 08:56:46;;;;;;;8.82;3.25;;;;;;;28.61;41.96;102703.97;5071900;28;20118;-71
2022/08/09 08:59:13;;;;;;;4.18;2.85;;;;;;;26.78;45.42;102712.13;5071669;28;20488;-71
2022/08/09 09:01:42;;;;;;;6.97;2.65;;;;;;;25.13;49.44;102717.41;5071952;28;20099;-68
2022/08/09 09:04:09;;;;;;;5.50;2.67;;;;;;;24.07;51.96;102722.56;5071854;28;20028;-68
2022/08/09 09:06:36;;;;;;;6.53;2.40;;;;;;;23.25;55.02;102725.38;5072025;28;20498;-67
2022/08/09 09:09:04;;;;;;;9.90;3.22;;;;;;;22.64;55.49;102720.06;5071767;28;20387;-67
2022/08/09 09:11:32;;;;;;;3.85;2.30;;;;;;;22.36;58.92;102730.69;5071818;28;20020;-68
2022/08/09 09:14:00;;;;;;;7.50;2.60;;;;;;;22.14;59.18;102716.72;5071842;28;20458;-68
2022/08/09 09:16:30;;;;;;;4.90;2.65;;;;;;;22.02;58.61;102728.38;5071700;28;20021;-68
2022/08/09 09:18:56;;;;;;;4.30;2.55;;;;;;;21.92;59.23;102722.63;5071680;28;20032;-67
2022/08/09 09:21:22;;;;;;;7.13;3.65;;;;;;;21.88;59.56;102719.56;5071330;28;20050;-67
2022/08/09 09:23:47;;;;;;;4.95;2.70;;;;;;;21.89;59.91;102723.09;5071423;28;20036;-67
2022/08/09 09:26:14;;;;;;;3.38;2.35;;;;;;;21.87;60.43;102725.19;5071564;28;20031;-68
2022/08/09 09:28:46;;;;;;;4.47;3.00;;;;;;;21.95;60.88;102726.78;5071536;28;20036;-67
2022/08/09 09:31:14;;;;;;;3.65;2.20;;;;;;;22.00;58.54;102725.03;5069576;28;20032;-67
2022/08/09 09:33:40;;;;;;;6.35;2.67;;;;;;;21.99;59.94;102728.00;5071073;28;20063;-68
2022/08/09 09:36:08;;;;;;;3.35;2.28;;;;;;;21.99;59.91;102725.28;5071151;28;20040;-68
2022/08/09 09:38:56;;;;;;;14.05;3.50;;;;;;;21.97;60.91;102716.53;5071358;28;20036;-67
2022/08/09 09:41:22;;;;;;;7.88;2.40;;;;;;;22.08;57.08;102708.44;5071149;28;20032;-68
2022/08/09 09:43:48;;;;;;;3.30;2.10;;;;;;;22.13;58.67;102715.91;5071109;28;20069;-68
2022/08/09 09:46:13;;;;;;;11.10;3.20;;;;;;;22.16;59.51;102710.00;5071196;28;20630;-68
2022/08/09 09:48:56;;;;;;;8.23;2.55;;;;;;;22.31;58.41;102721.34;5070898;28;20032;-68
2022/08/09 09:51:21;;;;;;;9.07;2.40;;;;;;;22.28;56.17;102719.06;5070888;28;20024;-68
2022/08/09 09:54:17;;;;;;;26.65;5.20;;;;;;;22.28;57.06;102712.81;5070905;28;20475;-67
2022/08/09 09:56:48;;;;;;;3.22;1.63;;;;;;;22.28;55.62;102718.25;5070720;28;20032;-68
2022/08/09 09:59:19;;;;;;;3.83;1.80;;;;;;;22.30;54.30;102716.16;5063050;28;20502;-66
2022/08/09 10:01:45;;;;;;;3.10;1.70;;;;;;;22.34;54.22;102714.59;5065534;28;20112;-67
2022/08/09 10:04:19;;;;;;;4.30;2.15;;;;;;;22.43;56.41;102721.41;5066278;28;20143;-68
2022/08/09 10:06:46;;;;;;;1.80;1.70;;;;;;;22.49;55.28;102725.06;5066174;28;20028;-67
2022/08/09 10:09:15;;;;;;;24.10;4.25;;;;;;;22.53;56.60;102720.81;5064850;28;20027;-67
2022/08/09 10:11:41;;;;;;;4.82;1.60;;;;;;;22.58;54.43;102717.41;5065169;28;20032;-67
2022/08/09 10:14:26;;;;;;;3.75;1.70;;;;;;;22.67;54.75;102716.03;5065611;28;20048;-67
2022/08/09 10:16:51;;;;;;;2.78;1.75;;;;;;;22.69;54.54;102712.03;5065574;28;20029;-67
2022/08/09 10:19:16;;;;;;;3.70;1.75;;;;;;;22.78;55.46;102715.22;5065991;28;20043;-68
2022/08/09 10:21:49;;;;;;;5.93;2.88;;;;;;;22.84;53.98;102721.63;5065695;28;20040;-67
2022/08/09 10:24:18;;;;;;;3.90;1.95;;;;;;;22.81;54.08;102712.03;5070682;28;20074;-67
2022/08/09 10:26:47;;;;;;;1.90;1.80;;;;;;;22.90;53.50;102710.66;5070195;28;20039;-66
2022/08/09 10:29:13;;;;;;;1.50;1.40;;;;;;;23.01;53.75;102711.75;5070333;28;20105;-66
2022/08/09 10:31:39;;;;;;;2.85;1.75;;;;;;;22.98;52.14;102712.22;5070188;28;20032;-66
2022/08/09 10:34:06;;;;;;;3.70;1.60;;;;;;;23.10;53.57;102709.50;5069620;28;20051;-67
2022/08/09 10:36:32;;;;;;;4.03;1.38;;;;;;;23.22;51.06;102706.81;5070278;28;20387;-66
2022/08/09 10:38:57;;;;;;;1.65;1.25;;;;;;;23.30;51.32;102701.00;5069782;28;20107;-66
2022/08/09 10:41:23;;;;;;;2.30;1.70;;;;;;;23.37;52.76;102709.88;5069935;28;20064;-67
2022/08/09 10:43:50;;;;;;;1.77;1.52;;;;;;;23.36;52.21;102698.16;5070013;28;20107;-67
2022/08/09 10:46:21;;;;;;;2.70;1.30;;;;;;;23.46;54.07;102686.66;5070163;28;20039;-66
2022/08/09 10:48:56;;;;;;;1.50;1.40;;;;;;;23.39;52.52;102680.50;5070017;28;20028;-67
2022/08/09 10:51:40;;;;;;;2.50;1.80;;;;;;;23.46;50.76;102691.28;5069756;28;20039;-67
2022/08/09 10:54:09;;;;;;;3.55;1.95;;;;;;;23.55;51.83;102689.84;5069564;28;20032;-66
2022/08/09 10:56:37;;;;;;;3.35;1.58;;;;;;;23.54;50.25;102689.00;5069711;28;20452;-66
2022/08/09 10:59:27;;;;;;;1.38;1.27;;;;;;;23.46;50.32;102675.78;5069814;28;20032;-66
2022/08/09 11:01:52;;;;;;;1.63;1.40;;;;;;;23.48;49.40;102683.72;5069528;28;20434;-67
2022/08/09 11:04:26;;;;;;;2.97;2.10;;;;;;;23.54;50.07;102672.66;5069775;28;20082;-67
2022/08/09 11:06:57;;;;;;;5.93;1.92;;;;;;;23.70;51.52;102676.56;5069552;28;20064;-67
2022/08/09 11:09:37;;;;;;;2.13;1.42;;;;;;;23.80;50.90;102684.16;5069661;28;20028;-67
2022/08/09 11:12:11;;;;;;;3.78;1.63;;;;;;;23.83;52.13;102684.47;5069670;28;20482;-67
2022/08/09 11:14:43;;;;;;;3.35;2.28;;;;;;;23.94;50.70;102684.69;5068759;28;20115;-67
2022/08/09 11:17:55;;;;;;;2.95;1.75;;;;;;;24.10;52.10;102681.19;5069465;28;20534;-67
2022/08/09 11:20:44;;;;;;;;;;;;;;;24.16;51.29;102685.69;5066784;28;20111;-67
2022/08/09 11:23:10;;;;;;;2.67;1.90;;;;;;;24.02;48.55;102682.41;5069361;28;20395;-68
2022/08/09 11:25:38;;;;;;;2.75;1.80;;;;;;;23.93;49.28;102675.69;5069247;28;20093;-68
2022/08/09 11:28:33;;;;;;;3.13;1.45;;;;;;;24.02;49.50;102682.41;5069463;28;20456;-68